sensor_id;sensor_type;location;lat;lon;timestamp;temperature;humidity
17172;DHT22;8701;50.150;8.756;2023-12-07T00:03:14;4.10;99.90
17172;DHT22;8701;50.150;8.756;2023-12-07T00:07:17;4.00;99.90
17172;DHT22;8701;50.150;8.756;2023-12-07T00:11:19;4.00;99.90
17172;DHT22;8701;50.150;8.756;2023-12-07T00:15:23;4.00;99.90
17172;DHT22;8701;50.150;8.756;2023-12-07T00:19:27;4.00;99.90
17172;DHT22;8701;50.150;8.756;2023-12-07T00:23:29;3.90;99.90
17172;DHT22;8701;50.150;8.756;2023-12-07T00:27:31;3.80;99.90
17172;DHT22;8701;50.150;8.756;2023-12-07T00:31:33;3.70;99.90
17172;DHT22;8701;50.150;8.756;2023-12-07T00:35:37;3.70;99.90
17172;DHT22;8701;50.150;8.756;2023-12-07T00:39:40;3.70;99.90
17172;DHT22;8701;50.150;8.756;2023-12-07T00:43:43;3.60;99.90
17172;DHT22;8701;50.150;8.756;2023-12-07T00:47:45;3.60;99.90
17172;DHT22;8701;50.150;8.756;2023-12-07T00:51:49;3.60;99.90
17172;DHT22;8701;50.150;8.756;2023-12-07T00:55:51;3.50;99.90
17172;DHT22;8701;50.150;8.756;2023-12-07T00:59:53;3.50;99.90
17172;DHT22;8701;50.150;8.756;2023-12-07T01:03:55;3.50;99.90
17172;DHT22;8701;50.150;8.756;2023-12-07T01:07:59;3.40;99.90
17172;DHT22;8701;50.150;8.756;2023-12-07T01:12:01;3.30;99.90
17172;DHT22;8701;50.150;8.756;2023-12-07T01:16:04;3.30;99.90
17172;DHT22;8701;50.150;8.756;2023-12-07T01:20:07;3.20;99.90
17172;DHT22;8701;50.150;8.756;2023-12-07T01:24:14;3.00;99.90
17172;DHT22;8701;50.150;8.756;2023-12-07T01:28:16;3.00;99.90
17172;DHT22;8701;50.150;8.756;2023-12-07T01:32:19;2.90;99.90
17172;DHT22;8701;50.150;8.756;2023-12-07T01:36:21;2.80;99.90
17172;DHT22;8701;50.150;8.756;2023-12-07T01:40:24;2.80;99.90
17172;DHT22;8701;50.150;8.756;2023-12-07T01:44:27;2.70;99.90
17172;DHT22;8701;50.150;8.756;2023-12-07T01:48:29;2.70;99.90
17172;DHT22;8701;50.150;8.756;2023-12-07T01:52:32;2.70;99.90
17172;DHT22;8701;50.150;8.756;2023-12-07T01:56:38;2.70;99.90
17172;DHT22;8701;50.150;8.756;2023-12-07T02:00:40;2.70;99.90
17172;DHT22;8701;50.150;8.756;2023-12-07T02:04:42;2.70;99.90
17172;DHT22;8701;50.150;8.756;2023-12-07T02:08:46;2.60;99.90
17172;DHT22;8701;50.150;8.756;2023-12-07T02:12:50;2.60;99.90
17172;DHT22;8701;50.150;8.756;2023-12-07T02:16:59;2.60;99.90
17172;DHT22;8701;50.150;8.756;2023-12-07T02:21:09;2.60;99.90
17172;DHT22;8701;50.150;8.756;2023-12-07T02:25:18;2.50;99.90
17172;DHT22;8701;50.150;8.756;2023-12-07T02:29:22;2.50;99.90
17172;DHT22;8701;50.150;8.756;2023-12-07T02:33:25;2.40;99.90
17172;DHT22;8701;50.150;8.756;2023-12-07T02:37:28;2.40;99.90
17172;DHT22;8701;50.150;8.756;2023-12-07T02:41:33;2.30;99.90
17172;DHT22;8701;50.150;8.756;2023-12-07T02:45:37;2.20;99.90
17172;DHT22;8701;50.150;8.756;2023-12-07T02:49:39;2.20;99.90
17172;DHT22;8701;50.150;8.756;2023-12-07T02:53:41;2.20;99.90
17172;DHT22;8701;50.150;8.756;2023-12-07T02:57:43;2.10;99.90
17172;DHT22;8701;50.150;8.756;2023-12-07T03:01:47;2.10;99.90
17172;DHT22;8701;50.150;8.756;2023-12-07T03:05:49;2.10;99.90
17172;DHT22;8701;50.150;8.756;2023-12-07T03:09:51;2.00;99.90
17172;DHT22;8701;50.150;8.756;2023-12-07T03:13:54;2.00;99.90
17172;DHT22;8701;50.150;8.756;2023-12-07T03:17:57;1.90;99.90
17172;DHT22;8701;50.150;8.756;2023-12-07T03:21:59;1.90;99.90
17172;DHT22;8701;50.150;8.756;2023-12-07T03:26:02;1.90;99.90
17172;DHT22;8701;50.150;8.756;2023-12-07T03:30:05;1.90;99.90
17172;DHT22;8701;50.150;8.756;2023-12-07T03:34:09;1.80;99.90
17172;DHT22;8701;50.150;8.756;2023-12-07T03:38:12;1.80;99.90
17172;DHT22;8701;50.150;8.756;2023-12-07T03:42:14;1.80;99.90
17172;DHT22;8701;50.150;8.756;2023-12-07T03:46:17;1.70;99.90
17172;DHT22;8701;50.150;8.756;2023-12-07T03:50:20;1.70;99.90
17172;DHT22;8701;50.150;8.756;2023-12-07T03:54:22;1.70;99.90
17172;DHT22;8701;50.150;8.756;2023-12-07T03:58:25;1.70;99.90
17172;DHT22;8701;50.150;8.756;2023-12-07T04:02:27;1.70;99.90
17172;DHT22;8701;50.150;8.756;2023-12-07T04:06:34;1.70;99.90
17172;DHT22;8701;50.150;8.756;2023-12-07T04:10:37;1.70;99.90
17172;DHT22;8701;50.150;8.756;2023-12-07T04:14:39;1.70;99.90
17172;DHT22;8701;50.150;8.756;2023-12-07T04:18:41;1.70;99.90
17172;DHT22;8701;50.150;8.756;2023-12-07T04:22:45;1.70;99.90
17172;DHT22;8701;50.150;8.756;2023-12-07T04:26:48;1.70;99.90
17172;DHT22;8701;50.150;8.756;2023-12-07T04:30:50;1.80;99.90
17172;DHT22;8701;50.150;8.756;2023-12-07T04:34:53;1.90;99.90
17172;DHT22;8701;50.150;8.756;2023-12-07T04:38:57;1.90;99.90
17172;DHT22;8701;50.150;8.756;2023-12-07T04:42:59;1.90;99.90
17172;DHT22;8701;50.150;8.756;2023-12-07T04:47:01;1.80;99.90
17172;DHT22;8701;50.150;8.756;2023-12-07T04:51:04;1.70;99.90
17172;DHT22;8701;50.150;8.756;2023-12-07T04:55:08;1.70;99.90
17172;DHT22;8701;50.150;8.756;2023-12-07T04:59:10;1.70;99.90
17172;DHT22;8701;50.150;8.756;2023-12-07T05:03:12;1.80;99.90
17172;DHT22;8701;50.150;8.756;2023-12-07T05:07:15;1.90;99.90
17172;DHT22;8701;50.150;8.756;2023-12-07T05:11:19;1.90;99.90
17172;DHT22;8701;50.150;8.756;2023-12-07T05:15:21;2.00;99.90
17172;DHT22;8701;50.150;8.756;2023-12-07T05:19:24;2.10;99.90
17172;DHT22;8701;50.150;8.756;2023-12-07T05:23:26;2.20;99.90
17172;DHT22;8701;50.150;8.756;2023-12-07T05:27:29;2.30;99.90
17172;DHT22;8701;50.150;8.756;2023-12-07T05:31:32;2.30;99.90
17172;DHT22;8701;50.150;8.756;2023-12-07T05:35:34;2.40;99.90
17172;DHT22;8701;50.150;8.756;2023-12-07T05:39:36;2.30;99.90
17172;DHT22;8701;50.150;8.756;2023-12-07T05:43:41;2.20;99.90
17172;DHT22;8701;50.150;8.756;2023-12-07T05:47:44;2.20;99.90
17172;DHT22;8701;50.150;8.756;2023-12-07T05:51:46;2.10;99.90
17172;DHT22;8701;50.150;8.756;2023-12-07T05:55:48;2.10;99.90
17172;DHT22;8701;50.150;8.756;2023-12-07T05:59:51;2.10;99.90
17172;DHT22;8701;50.150;8.756;2023-12-07T06:03:54;2.00;99.90
17172;DHT22;8701;50.150;8.756;2023-12-07T06:07:56;2.00;99.90
17172;DHT22;8701;50.150;8.756;2023-12-07T06:11:58;2.00;99.90
17172;DHT22;8701;50.150;8.756;2023-12-07T06:16:02;2.00;99.90
17172;DHT22;8701;50.150;8.756;2023-12-07T06:20:05;1.90;99.90
17172;DHT22;8701;50.150;8.756;2023-12-07T06:24:07;1.80;99.90
17172;DHT22;8701;50.150;8.756;2023-12-07T06:28:09;1.70;99.90
17172;DHT22;8701;50.150;8.756;2023-12-07T06:32:15;1.70;99.90
17172;DHT22;8701;50.150;8.756;2023-12-07T06:36:20;1.60;99.90
17172;DHT22;8701;50.150;8.756;2023-12-07T06:40:23;1.50;99.90
17172;DHT22;8701;50.150;8.756;2023-12-07T06:44:25;1.50;99.90
17172;DHT22;8701;50.150;8.756;2023-12-07T06:48:29;1.50;99.90
17172;DHT22;8701;50.150;8.756;2023-12-07T06:52:31;1.40;99.90
17172;DHT22;8701;50.150;8.756;2023-12-07T06:56:33;1.40;99.90
17172;DHT22;8701;50.150;8.756;2023-12-07T07:00:36;1.30;99.90
17172;DHT22;8701;50.150;8.756;2023-12-07T07:04:39;1.30;99.90
17172;DHT22;8701;50.150;8.756;2023-12-07T07:08:41;1.30;99.90
17172;DHT22;8701;50.150;8.756;2023-12-07T07:12:43;1.30;99.90
17172;DHT22;8701;50.150;8.756;2023-12-07T07:16:46;1.30;99.90
17172;DHT22;8701;50.150;8.756;2023-12-07T07:20:49;1.30;99.90
17172;DHT22;8701;50.150;8.756;2023-12-07T07:24:51;1.20;99.90
17172;DHT22;8701;50.150;8.756;2023-12-07T07:28:54;1.20;99.90
17172;DHT22;8701;50.150;8.756;2023-12-07T07:32:56;1.20;99.90
17172;DHT22;8701;50.150;8.756;2023-12-07T07:37:00;1.20;99.90
17172;DHT22;8701;50.150;8.756;2023-12-07T07:41:02;1.20;99.90
17172;DHT22;8701;50.150;8.756;2023-12-07T07:45:05;1.30;99.90
17172;DHT22;8701;50.150;8.756;2023-12-07T07:49:08;1.30;99.90
17172;DHT22;8701;50.150;8.756;2023-12-07T07:53:11;1.30;99.90
17172;DHT22;8701;50.150;8.756;2023-12-07T07:57:13;1.40;99.90
17172;DHT22;8701;50.150;8.756;2023-12-07T08:01:16;1.40;99.90
17172;DHT22;8701;50.150;8.756;2023-12-07T08:05:18;1.50;99.90
17172;DHT22;8701;50.150;8.756;2023-12-07T08:09:21;1.50;99.90
17172;DHT22;8701;50.150;8.756;2023-12-07T08:13:23;1.60;99.90
17172;DHT22;8701;50.150;8.756;2023-12-07T08:17:26;1.60;99.90
17172;DHT22;8701;50.150;8.756;2023-12-07T08:21:29;1.70;99.90
17172;DHT22;8701;50.150;8.756;2023-12-07T08:25:32;1.80;99.90
17172;DHT22;8701;50.150;8.756;2023-12-07T08:29:35;1.80;99.90
17172;DHT22;8701;50.150;8.756;2023-12-07T08:33:38;1.80;99.90
17172;DHT22;8701;50.150;8.756;2023-12-07T08:37:41;1.90;99.90
17172;DHT22;8701;50.150;8.756;2023-12-07T08:41:45;2.00;99.90
17172;DHT22;8701;50.150;8.756;2023-12-07T08:45:47;2.10;99.90
17172;DHT22;8701;50.150;8.756;2023-12-07T08:49:49;2.10;99.90
17172;DHT22;8701;50.150;8.756;2023-12-07T08:53:52;2.10;99.90
17172;DHT22;8701;50.150;8.756;2023-12-07T08:57:55;2.20;99.90
17172;DHT22;8701;50.150;8.756;2023-12-07T09:01:58;2.30;99.90
17172;DHT22;8701;50.150;8.756;2023-12-07T09:06:00;2.40;99.90
17172;DHT22;8701;50.150;8.756;2023-12-07T09:10:04;2.50;99.90
17172;DHT22;8701;50.150;8.756;2023-12-07T09:14:08;2.50;99.90
17172;DHT22;8701;50.150;8.756;2023-12-07T09:18:10;2.50;99.90
17172;DHT22;8701;50.150;8.756;2023-12-07T09:22:12;2.60;99.90
17172;DHT22;8701;50.150;8.756;2023-12-07T09:26:17;2.80;99.90
17172;DHT22;8701;50.150;8.756;2023-12-07T09:30:20;3.00;99.90
17172;DHT22;8701;50.150;8.756;2023-12-07T09:34:22;3.00;99.90
17172;DHT22;8701;50.150;8.756;2023-12-07T09:38:24;3.10;99.90
17172;DHT22;8701;50.150;8.756;2023-12-07T09:42:30;3.20;99.90
17172;DHT22;8701;50.150;8.756;2023-12-07T09:46:34;3.30;99.90
17172;DHT22;8701;50.150;8.756;2023-12-07T09:50:36;3.30;99.90
17172;DHT22;8701;50.150;8.756;2023-12-07T09:54:40;3.30;99.90
17172;DHT22;8701;50.150;8.756;2023-12-07T09:58:43;3.40;99.90
17172;DHT22;8701;50.150;8.756;2023-12-07T10:02:47;3.50;99.90
17172;DHT22;8701;50.150;8.756;2023-12-07T10:06:51;3.50;99.90
17172;DHT22;8701;50.150;8.756;2023-12-07T10:11:05;3.60;99.90
17172;DHT22;8701;50.150;8.756;2023-12-07T10:15:12;3.60;99.90
17172;DHT22;8701;50.150;8.756;2023-12-07T10:19:16;3.70;99.90
17172;DHT22;8701;50.150;8.756;2023-12-07T10:23:22;3.80;99.90
17172;DHT22;8701;50.150;8.756;2023-12-07T10:27:26;3.80;99.90
17172;DHT22;8701;50.150;8.756;2023-12-07T10:31:29;3.90;99.90
17172;DHT22;8701;50.150;8.756;2023-12-07T10:35:34;3.90;99.90
17172;DHT22;8701;50.150;8.756;2023-12-07T10:39:40;3.90;99.90
17172;DHT22;8701;50.150;8.756;2023-12-07T10:43:43;3.90;99.90
17172;DHT22;8701;50.150;8.756;2023-12-07T10:47:46;3.90;99.90
17172;DHT22;8701;50.150;8.756;2023-12-07T10:51:56;4.00;99.90
17172;DHT22;8701;50.150;8.756;2023-12-07T10:56:01;4.00;99.90
17172;DHT22;8701;50.150;8.756;2023-12-07T11:00:07;4.00;99.90
17172;DHT22;8701;50.150;8.756;2023-12-07T11:04:11;4.10;99.90
17172;DHT22;8701;50.150;8.756;2023-12-07T11:08:21;4.10;99.90
17172;DHT22;8701;50.150;8.756;2023-12-07T11:12:31;4.20;99.90
17172;DHT22;8701;50.150;8.756;2023-12-07T11:16:36;4.20;99.90
17172;DHT22;8701;50.150;8.756;2023-12-07T11:20:42;4.10;99.90
17172;DHT22;8701;50.150;8.756;2023-12-07T11:24:57;4.00;99.90
17172;DHT22;8701;50.150;8.756;2023-12-07T11:29:01;4.10;99.90
17172;DHT22;8701;50.150;8.756;2023-12-07T11:33:04;4.20;99.90
17172;DHT22;8701;50.150;8.756;2023-12-07T11:37:07;4.20;99.90
17172;DHT22;8701;50.150;8.756;2023-12-07T11:41:11;4.30;99.90
17172;DHT22;8701;50.150;8.756;2023-12-07T11:45:13;4.30;99.90
17172;DHT22;8701;50.150;8.756;2023-12-07T11:49:16;4.40;99.90
17172;DHT22;8701;50.150;8.756;2023-12-07T11:53:20;4.40;99.90
17172;DHT22;8701;50.150;8.756;2023-12-07T11:57:24;4.50;99.90
17172;DHT22;8701;50.150;8.756;2023-12-07T12:01:26;4.60;99.90
17172;DHT22;8701;50.150;8.756;2023-12-07T12:05:31;4.60;99.90
17172;DHT22;8701;50.150;8.756;2023-12-07T12:09:33;4.70;99.90
17172;DHT22;8701;50.150;8.756;2023-12-07T12:13:37;4.70;99.90
17172;DHT22;8701;50.150;8.756;2023-12-07T12:17:40;4.70;99.90
17172;DHT22;8701;50.150;8.756;2023-12-07T12:21:43;4.70;99.90
17172;DHT22;8701;50.150;8.756;2023-12-07T12:25:45;4.70;99.90
17172;DHT22;8701;50.150;8.756;2023-12-07T12:29:49;4.80;99.90
17172;DHT22;8701;50.150;8.756;2023-12-07T12:33:53;4.70;99.90
17172;DHT22;8701;50.150;8.756;2023-12-07T12:37:55;4.70;99.90
17172;DHT22;8701;50.150;8.756;2023-12-07T12:41:57;4.70;99.90
17172;DHT22;8701;50.150;8.756;2023-12-07T12:46:03;4.70;99.90
17172;DHT22;8701;50.150;8.756;2023-12-07T12:50:06;4.70;99.90
17172;DHT22;8701;50.150;8.756;2023-12-07T12:54:09;4.70;99.90
17172;DHT22;8701;50.150;8.756;2023-12-07T12:58:12;4.80;99.90
17172;DHT22;8701;50.150;8.756;2023-12-07T13:02:16;4.90;99.90
17172;DHT22;8701;50.150;8.756;2023-12-07T13:06:19;5.00;99.90
17172;DHT22;8701;50.150;8.756;2023-12-07T13:10:21;5.00;99.90
17172;DHT22;8701;50.150;8.756;2023-12-07T13:14:24;4.90;99.90
17172;DHT22;8701;50.150;8.756;2023-12-07T13:18:27;4.80;99.90
17172;DHT22;8701;50.150;8.756;2023-12-07T13:22:29;4.80;99.90
17172;DHT22;8701;50.150;8.756;2023-12-07T13:26:32;4.90;99.90
17172;DHT22;8701;50.150;8.756;2023-12-07T13:30:34;4.90;99.90
17172;DHT22;8701;50.150;8.756;2023-12-07T13:34:38;4.80;99.90
17172;DHT22;8701;50.150;8.756;2023-12-07T13:38:41;4.80;99.90
17172;DHT22;8701;50.150;8.756;2023-12-07T13:42:44;4.80;99.90
17172;DHT22;8701;50.150;8.756;2023-12-07T13:46:46;4.70;99.90
17172;DHT22;8701;50.150;8.756;2023-12-07T13:50:50;4.70;99.90
17172;DHT22;8701;50.150;8.756;2023-12-07T13:54:52;4.70;99.90
17172;DHT22;8701;50.150;8.756;2023-12-07T13:58:55;4.70;99.90
17172;DHT22;8701;50.150;8.756;2023-12-07T14:02:57;4.70;99.90
17172;DHT22;8701;50.150;8.756;2023-12-07T14:07:08;4.60;99.90
17172;DHT22;8701;50.150;8.756;2023-12-07T14:11:11;4.60;99.90
17172;DHT22;8701;50.150;8.756;2023-12-07T14:15:13;4.60;99.90
17172;DHT22;8701;50.150;8.756;2023-12-07T14:19:15;4.60;99.90
17172;DHT22;8701;50.150;8.756;2023-12-07T14:23:19;4.60;99.90
17172;DHT22;8701;50.150;8.756;2023-12-07T14:27:21;4.60;99.90
17172;DHT22;8701;50.150;8.756;2023-12-07T14:31:24;4.60;99.90
17172;DHT22;8701;50.150;8.756;2023-12-07T14:35:26;4.50;99.90
17172;DHT22;8701;50.150;8.756;2023-12-07T14:39:29;4.50;99.90
17172;DHT22;8701;50.150;8.756;2023-12-07T14:43:32;4.40;99.90
17172;DHT22;8701;50.150;8.756;2023-12-07T14:47:34;4.40;99.90
17172;DHT22;8701;50.150;8.756;2023-12-07T14:51:36;4.40;99.90
17172;DHT22;8701;50.150;8.756;2023-12-07T14:55:41;4.50;99.90
17172;DHT22;8701;50.150;8.756;2023-12-07T14:59:43;4.40;99.90
17172;DHT22;8701;50.150;8.756;2023-12-07T15:03:46;4.40;99.90
17172;DHT22;8701;50.150;8.756;2023-12-07T15:07:48;4.40;99.90
17172;DHT22;8701;50.150;8.756;2023-12-07T15:11:53;4.30;99.90
17172;DHT22;8701;50.150;8.756;2023-12-07T15:15:56;4.30;99.90
17172;DHT22;8701;50.150;8.756;2023-12-07T15:19:59;4.20;99.90
17172;DHT22;8701;50.150;8.756;2023-12-07T15:24:01;4.10;99.90
17172;DHT22;8701;50.150;8.756;2023-12-07T15:28:05;4.10;99.90
17172;DHT22;8701;50.150;8.756;2023-12-07T15:32:11;3.80;99.90
17172;DHT22;8701;50.150;8.756;2023-12-07T15:36:14;3.80;99.90
17172;DHT22;8701;50.150;8.756;2023-12-07T15:40:16;3.80;99.90
17172;DHT22;8701;50.150;8.756;2023-12-07T15:44:19;3.60;99.90
17172;DHT22;8701;50.150;8.756;2023-12-07T15:48:22;3.50;99.90
17172;DHT22;8701;50.150;8.756;2023-12-07T15:52:24;3.50;99.90
17172;DHT22;8701;50.150;8.756;2023-12-07T15:56:26;3.50;99.90
17172;DHT22;8701;50.150;8.756;2023-12-07T16:00:30;3.40;99.90
17172;DHT22;8701;50.150;8.756;2023-12-07T16:04:33;3.40;99.90
17172;DHT22;8701;50.150;8.756;2023-12-07T16:08:35;3.50;99.90
17172;DHT22;8701;50.150;8.756;2023-12-07T16:12:38;3.40;99.90
17172;DHT22;8701;50.150;8.756;2023-12-07T16:16:41;3.30;99.90
17172;DHT22;8701;50.150;8.756;2023-12-07T16:20:44;3.30;99.90
17172;DHT22;8701;50.150;8.756;2023-12-07T16:24:46;3.30;99.90
17172;DHT22;8701;50.150;8.756;2023-12-07T16:28:48;3.30;99.90
17172;DHT22;8701;50.150;8.756;2023-12-07T16:32:52;3.30;99.90
17172;DHT22;8701;50.150;8.756;2023-12-07T16:36:54;3.30;99.90
17172;DHT22;8701;50.150;8.756;2023-12-07T16:40:56;3.20;99.90
17172;DHT22;8701;50.150;8.756;2023-12-07T16:44:59;3.20;99.90
17172;DHT22;8701;50.150;8.756;2023-12-07T16:49:02;3.20;99.90
17172;DHT22;8701;50.150;8.756;2023-12-07T16:53:05;3.20;99.90
17172;DHT22;8701;50.150;8.756;2023-12-07T16:57:08;3.10;99.90
17172;DHT22;8701;50.150;8.756;2023-12-07T17:01:10;3.00;99.90
17172;DHT22;8701;50.150;8.756;2023-12-07T17:05:14;3.00;99.90
17172;DHT22;8701;50.150;8.756;2023-12-07T17:09:16;2.90;99.90
17172;DHT22;8701;50.150;8.756;2023-12-07T17:13:18;2.90;99.90
17172;DHT22;8701;50.150;8.756;2023-12-07T17:17:21;2.80;99.90
17172;DHT22;8701;50.150;8.756;2023-12-07T17:21:25;2.80;99.90
17172;DHT22;8701;50.150;8.756;2023-12-07T17:25:27;2.70;99.90
17172;DHT22;8701;50.150;8.756;2023-12-07T17:29:29;2.70;99.90
17172;DHT22;8701;50.150;8.756;2023-12-07T17:33:31;2.60;99.90
17172;DHT22;8701;50.150;8.756;2023-12-07T17:37:35;2.50;99.90
17172;DHT22;8701;50.150;8.756;2023-12-07T17:41:38;2.50;99.90
17172;DHT22;8701;50.150;8.756;2023-12-07T17:45:40;2.40;99.90
17172;DHT22;8701;50.150;8.756;2023-12-07T17:49:43;2.40;99.90
17172;DHT22;8701;50.150;8.756;2023-12-07T17:53:46;2.30;99.90
17172;DHT22;8701;50.150;8.756;2023-12-07T17:57:48;2.30;99.90
17172;DHT22;8701;50.150;8.756;2023-12-07T18:01:51;2.30;99.90
17172;DHT22;8701;50.150;8.756;2023-12-07T18:05:53;2.30;99.90
17172;DHT22;8701;50.150;8.756;2023-12-07T18:09:56;2.40;99.90
17172;DHT22;8701;50.150;8.756;2023-12-07T18:13:59;2.40;99.90
17172;DHT22;8701;50.150;8.756;2023-12-07T18:18:01;2.40;99.90
17172;DHT22;8701;50.150;8.756;2023-12-07T18:22:03;2.40;99.90
17172;DHT22;8701;50.150;8.756;2023-12-07T18:26:09;2.40;99.90
17172;DHT22;8701;50.150;8.756;2023-12-07T18:30:13;2.30;99.90
17172;DHT22;8701;50.150;8.756;2023-12-07T18:34:15;2.30;99.90
17172;DHT22;8701;50.150;8.756;2023-12-07T18:38:17;2.20;99.90
17172;DHT22;8701;50.150;8.756;2023-12-07T18:42:20;2.20;99.90
17172;DHT22;8701;50.150;8.756;2023-12-07T18:46:23;2.20;99.90
17172;DHT22;8701;50.150;8.756;2023-12-07T18:50:26;2.20;99.90
17172;DHT22;8701;50.150;8.756;2023-12-07T18:54:28;2.20;99.90
17172;DHT22;8701;50.150;8.756;2023-12-07T18:58:36;2.10;99.90
17172;DHT22;8701;50.150;8.756;2023-12-07T19:02:38;2.10;99.90
17172;DHT22;8701;50.150;8.756;2023-12-07T19:06:40;2.00;99.90
17172;DHT22;8701;50.150;8.756;2023-12-07T19:10:42;2.00;99.90
17172;DHT22;8701;50.150;8.756;2023-12-07T19:14:46;1.90;99.90
17172;DHT22;8701;50.150;8.756;2023-12-07T19:18:49;1.90;99.90
17172;DHT22;8701;50.150;8.756;2023-12-07T19:22:51;1.90;99.90
17172;DHT22;8701;50.150;8.756;2023-12-07T19:26:53;1.80;99.90
17172;DHT22;8701;50.150;8.756;2023-12-07T19:30:57;1.80;99.90
17172;DHT22;8701;50.150;8.756;2023-12-07T19:34:59;1.80;99.90
17172;DHT22;8701;50.150;8.756;2023-12-07T19:39:02;1.80;99.90
17172;DHT22;8701;50.150;8.756;2023-12-07T19:43:04;1.80;99.90
17172;DHT22;8701;50.150;8.756;2023-12-07T19:47:08;1.80;99.90
17172;DHT22;8701;50.150;8.756;2023-12-07T19:51:10;1.80;99.90
17172;DHT22;8701;50.150;8.756;2023-12-07T19:55:13;1.80;99.90
17172;DHT22;8701;50.150;8.756;2023-12-07T19:59:16;1.70;99.90
17172;DHT22;8701;50.150;8.756;2023-12-07T20:03:19;1.70;99.90
17172;DHT22;8701;50.150;8.756;2023-12-07T20:07:21;1.70;99.90
17172;DHT22;8701;50.150;8.756;2023-12-07T20:11:24;1.70;99.90
17172;DHT22;8701;50.150;8.756;2023-12-07T20:15:26;1.60;99.90
17172;DHT22;8701;50.150;8.756;2023-12-07T20:19:30;1.60;99.90
17172;DHT22;8701;50.150;8.756;2023-12-07T20:23:32;1.60;99.90
17172;DHT22;8701;50.150;8.756;2023-12-07T20:27:36;1.60;99.90
17172;DHT22;8701;50.150;8.756;2023-12-07T20:31:39;1.60;99.90
17172;DHT22;8701;50.150;8.756;2023-12-07T20:35:43;1.60;99.90
17172;DHT22;8701;50.150;8.756;2023-12-07T20:39:45;1.60;99.90
17172;DHT22;8701;50.150;8.756;2023-12-07T20:43:47;1.50;99.90
17172;DHT22;8701;50.150;8.756;2023-12-07T20:47:50;1.50;99.90
17172;DHT22;8701;50.150;8.756;2023-12-07T20:51:53;1.60;99.90
17172;DHT22;8701;50.150;8.756;2023-12-07T20:55:55;1.60;99.90
17172;DHT22;8701;50.150;8.756;2023-12-07T20:59:57;1.60;99.90
17172;DHT22;8701;50.150;8.756;2023-12-07T21:04:00;1.50;99.90
17172;DHT22;8701;50.150;8.756;2023-12-07T21:08:03;1.60;99.90
17172;DHT22;8701;50.150;8.756;2023-12-07T21:12:06;1.60;99.90
17172;DHT22;8701;50.150;8.756;2023-12-07T21:16:08;1.70;99.90
17172;DHT22;8701;50.150;8.756;2023-12-07T21:20:10;1.80;99.90
17172;DHT22;8701;50.150;8.756;2023-12-07T21:24:14;1.90;99.90
17172;DHT22;8701;50.150;8.756;2023-12-07T21:28:16;1.90;99.90
17172;DHT22;8701;50.150;8.756;2023-12-07T21:32:19;2.00;99.90
17172;DHT22;8701;50.150;8.756;2023-12-07T21:36:21;2.00;99.90
17172;DHT22;8701;50.150;8.756;2023-12-07T21:40:25;2.10;99.90
17172;DHT22;8701;50.150;8.756;2023-12-07T21:44:27;2.10;99.90
17172;DHT22;8701;50.150;8.756;2023-12-07T21:48:29;2.10;99.90
17172;DHT22;8701;50.150;8.756;2023-12-07T21:52:32;2.00;99.90
17172;DHT22;8701;50.150;8.756;2023-12-07T21:56:36;2.10;99.90
17172;DHT22;8701;50.150;8.756;2023-12-07T22:00:39;2.10;99.90
17172;DHT22;8701;50.150;8.756;2023-12-07T22:04:41;2.10;99.90
17172;DHT22;8701;50.150;8.756;2023-12-07T22:08:43;2.10;99.90
17172;DHT22;8701;50.150;8.756;2023-12-07T22:12:50;2.10;99.90
17172;DHT22;8701;50.150;8.756;2023-12-07T22:16:52;2.10;99.90
17172;DHT22;8701;50.150;8.756;2023-12-07T22:20:54;2.10;99.90
17172;DHT22;8701;50.150;8.756;2023-12-07T22:24:57;2.10;99.90
17172;DHT22;8701;50.150;8.756;2023-12-07T22:29:00;2.10;99.90
17172;DHT22;8701;50.150;8.756;2023-12-07T22:33:03;2.10;99.90
17172;DHT22;8701;50.150;8.756;2023-12-07T22:37:05;2.10;99.90
17172;DHT22;8701;50.150;8.756;2023-12-07T22:41:12;2.20;99.90
17172;DHT22;8701;50.150;8.756;2023-12-07T22:45:25;2.20;99.90
17172;DHT22;8701;50.150;8.756;2023-12-07T22:49:28;2.30;99.90
17172;DHT22;8701;50.150;8.756;2023-12-07T22:53:32;2.30;99.90
17172;DHT22;8701;50.150;8.756;2023-12-07T22:57:35;2.40;99.90
17172;DHT22;8701;50.150;8.756;2023-12-07T23:01:38;2.40;99.90
17172;DHT22;8701;50.150;8.756;2023-12-07T23:05:40;2.40;99.90
17172;DHT22;8701;50.150;8.756;2023-12-07T23:09:43;2.40;99.90
17172;DHT22;8701;50.150;8.756;2023-12-07T23:13:47;2.40;99.90
17172;DHT22;8701;50.150;8.756;2023-12-07T23:17:51;2.40;99.90
17172;DHT22;8701;50.150;8.756;2023-12-07T23:21:53;2.40;99.90
17172;DHT22;8701;50.150;8.756;2023-12-07T23:25:55;2.40;99.90
17172;DHT22;8701;50.150;8.756;2023-12-07T23:29:57;2.40;99.90
17172;DHT22;8701;50.150;8.756;2023-12-07T23:34:01;2.40;99.90
17172;DHT22;8701;50.150;8.756;2023-12-07T23:38:03;2.50;99.90
17172;DHT22;8701;50.150;8.756;2023-12-07T23:42:07;2.50;99.90
17172;DHT22;8701;50.150;8.756;2023-12-07T23:46:09;2.50;99.90
17172;DHT22;8701;50.150;8.756;2023-12-07T23:50:14;2.50;99.90
17172;DHT22;8701;50.150;8.756;2023-12-07T23:54:16;2.60;99.90
17172;DHT22;8701;50.150;8.756;2023-12-07T23:58:18;2.60;99.90
